sensor_id;sensor_type;location;lat;lon;timestamp;P1;durP1;ratioP1;P2;durP2;ratioP2
20531;SDS011;10424;52.102;8.084;2023-04-15T00:00:13;8.85;;;6.30;;
20531;SDS011;10424;52.102;8.084;2023-04-15T00:02:41;10.57;;;6.72;;
20531;SDS011;10424;52.102;8.084;2023-04-15T00:05:09;10.48;;;6.60;;
20531;SDS011;10424;52.102;8.084;2023-04-15T00:07:38;13.02;;;7.05;;
20531;SDS011;10424;52.102;8.084;2023-04-15T00:10:06;14.43;;;6.90;;
20531;SDS011;10424;52.102;8.084;2023-04-15T00:12:33;10.60;;;6.60;;
20531;SDS011;10424;52.102;8.084;2023-04-15T00:15:01;10.57;;;6.63;;
20531;SDS011;10424;52.102;8.084;2023-04-15T00:17:28;12.80;;;7.20;;
20531;SDS011;10424;52.102;8.084;2023-04-15T00:19:56;10.82;;;7.13;;
20531;SDS011;10424;52.102;8.084;2023-04-15T00:22:24;12.80;;;7.57;;
20531;SDS011;10424;52.102;8.084;2023-04-15T00:24:53;12.85;;;7.32;;
20531;SDS011;10424;52.102;8.084;2023-04-15T00:27:20;10.60;;;7.05;;
20531;SDS011;10424;52.102;8.084;2023-04-15T00:29:47;10.88;;;7.20;;
20531;SDS011;10424;52.102;8.084;2023-04-15T00:32:15;10.38;;;7.00;;
20531;SDS011;10424;52.102;8.084;2023-04-15T00:34:42;12.73;;;7.63;;
20531;SDS011;10424;52.102;8.084;2023-04-15T00:37:09;11.30;;;7.47;;
20531;SDS011;10424;52.102;8.084;2023-04-15T00:39:36;13.80;;;7.40;;
20531;SDS011;10424;52.102;8.084;2023-04-15T00:42:05;11.73;;;7.68;;
20531;SDS011;10424;52.102;8.084;2023-04-15T00:44:32;11.23;;;7.40;;
20531;SDS011;10424;52.102;8.084;2023-04-15T00:47:00;13.43;;;7.72;;
20531;SDS011;10424;52.102;8.084;2023-04-15T00:49:28;12.30;;;8.00;;
20531;SDS011;10424;52.102;8.084;2023-04-15T00:51:56;13.10;;;7.68;;
20531;SDS011;10424;52.102;8.084;2023-04-15T00:54:23;11.68;;;7.47;;
20531;SDS011;10424;52.102;8.084;2023-04-15T00:56:51;12.43;;;7.68;;
20531;SDS011;10424;52.102;8.084;2023-04-15T00:59:19;14.05;;;7.90;;
20531;SDS011;10424;52.102;8.084;2023-04-15T01:01:47;12.50;;;7.88;;
20531;SDS011;10424;52.102;8.084;2023-04-15T01:04:14;12.50;;;8.07;;
20531;SDS011;10424;52.102;8.084;2023-04-15T01:06:42;13.65;;;8.13;;
20531;SDS011;10424;52.102;8.084;2023-04-15T01:09:09;13.93;;;8.00;;
20531;SDS011;10424;52.102;8.084;2023-04-15T01:11:37;14.45;;;8.43;;
20531;SDS011;10424;52.102;8.084;2023-04-15T01:14:04;12.68;;;7.85;;
20531;SDS011;10424;52.102;8.084;2023-04-15T01:16:34;12.52;;;8.25;;
20531;SDS011;10424;52.102;8.084;2023-04-15T01:19:04;13.27;;;8.18;;
20531;SDS011;10424;52.102;8.084;2023-04-15T01:21:31;13.63;;;8.80;;
20531;SDS011;10424;52.102;8.084;2023-04-15T01:23:59;13.20;;;8.77;;
20531;SDS011;10424;52.102;8.084;2023-04-15T01:26:28;11.73;;;8.05;;
20531;SDS011;10424;52.102;8.084;2023-04-15T01:28:55;15.50;;;9.32;;
20531;SDS011;10424;52.102;8.084;2023-04-15T01:31:22;13.68;;;8.80;;
20531;SDS011;10424;52.102;8.084;2023-04-15T01:33:50;14.20;;;8.60;;
20531;SDS011;10424;52.102;8.084;2023-04-15T01:36:17;16.02;;;9.50;;
20531;SDS011;10424;52.102;8.084;2023-04-15T01:38:44;14.85;;;8.73;;
20531;SDS011;10424;52.102;8.084;2023-04-15T01:41:12;14.20;;;9.15;;
20531;SDS011;10424;52.102;8.084;2023-04-15T01:43:41;14.50;;;8.65;;
20531;SDS011;10424;52.102;8.084;2023-04-15T01:46:08;16.00;;;9.60;;
20531;SDS011;10424;52.102;8.084;2023-04-15T01:48:35;15.18;;;9.48;;
20531;SDS011;10424;52.102;8.084;2023-04-15T01:51:02;16.10;;;9.52;;
20531;SDS011;10424;52.102;8.084;2023-04-15T01:53:29;14.77;;;9.10;;
20531;SDS011;10424;52.102;8.084;2023-04-15T01:55:57;15.27;;;9.05;;
20531;SDS011;10424;52.102;8.084;2023-04-15T01:58:25;16.05;;;8.77;;
20531;SDS011;10424;52.102;8.084;2023-04-15T02:00:54;15.15;;;8.75;;
20531;SDS011;10424;52.102;8.084;2023-04-15T02:03:21;14.32;;;8.95;;
20531;SDS011;10424;52.102;8.084;2023-04-15T02:05:48;16.70;;;9.00;;
20531;SDS011;10424;52.102;8.084;2023-04-15T02:08:16;15.70;;;9.30;;
20531;SDS011;10424;52.102;8.084;2023-04-15T02:10:43;13.15;;;8.73;;
20531;SDS011;10424;52.102;8.084;2023-04-15T02:13:10;16.10;;;9.77;;
20531;SDS011;10424;52.102;8.084;2023-04-15T02:15:38;15.60;;;9.48;;
20531;SDS011;10424;52.102;8.084;2023-04-15T02:18:06;16.80;;;9.57;;
20531;SDS011;10424;52.102;8.084;2023-04-15T02:20:34;15.23;;;9.20;;
20531;SDS011;10424;52.102;8.084;2023-04-15T02:23:02;17.20;;;9.87;;
20531;SDS011;10424;52.102;8.084;2023-04-15T02:25:31;15.30;;;9.40;;
20531;SDS011;10424;52.102;8.084;2023-04-15T02:27:58;15.93;;;9.43;;
20531;SDS011;10424;52.102;8.084;2023-04-15T02:30:26;17.37;;;10.30;;
20531;SDS011;10424;52.102;8.084;2023-04-15T02:32:53;17.43;;;9.50;;
20531;SDS011;10424;52.102;8.084;2023-04-15T02:35:22;17.07;;;9.73;;
20531;SDS011;10424;52.102;8.084;2023-04-15T02:37:50;17.33;;;8.97;;
20531;SDS011;10424;52.102;8.084;2023-04-15T02:40:17;16.27;;;9.83;;
20531;SDS011;10424;52.102;8.084;2023-04-15T02:42:44;17.13;;;9.40;;
20531;SDS011;10424;52.102;8.084;2023-04-15T02:45:12;17.47;;;9.27;;
20531;SDS011;10424;52.102;8.084;2023-04-15T02:47:39;16.77;;;9.20;;
20531;SDS011;10424;52.102;8.084;2023-04-15T02:50:07;18.37;;;10.47;;
20531;SDS011;10424;52.102;8.084;2023-04-15T02:52:38;16.10;;;9.30;;
20531;SDS011;10424;52.102;8.084;2023-04-15T02:55:06;15.33;;;9.37;;
20531;SDS011;10424;52.102;8.084;2023-04-15T02:57:34;16.47;;;10.00;;
20531;SDS011;10424;52.102;8.084;2023-04-15T03:00:03;21.63;;;9.90;;
20531;SDS011;10424;52.102;8.084;2023-04-15T03:02:32;16.90;;;9.37;;
20531;SDS011;10424;52.102;8.084;2023-04-15T03:05:00;17.63;;;9.53;;
20531;SDS011;10424;52.102;8.084;2023-04-15T03:07:28;14.90;;;9.17;;
20531;SDS011;10424;52.102;8.084;2023-04-15T03:09:56;17.43;;;9.40;;
20531;SDS011;10424;52.102;8.084;2023-04-15T03:12:24;15.30;;;9.30;;
20531;SDS011;10424;52.102;8.084;2023-04-15T03:14:52;14.27;;;8.37;;
20531;SDS011;10424;52.102;8.084;2023-04-15T03:17:19;15.43;;;9.70;;
20531;SDS011;10424;52.102;8.084;2023-04-15T03:19:46;16.13;;;9.40;;
20531;SDS011;10424;52.102;8.084;2023-04-15T03:22:13;17.30;;;10.00;;
20531;SDS011;10424;52.102;8.084;2023-04-15T03:24:40;17.60;;;9.73;;
20531;SDS011;10424;52.102;8.084;2023-04-15T03:27:09;15.63;;;9.10;;
20531;SDS011;10424;52.102;8.084;2023-04-15T03:29:37;18.10;;;10.30;;
20531;SDS011;10424;52.102;8.084;2023-04-15T03:32:04;16.90;;;9.40;;
20531;SDS011;10424;52.102;8.084;2023-04-15T03:34:31;16.93;;;9.57;;
20531;SDS011;10424;52.102;8.084;2023-04-15T03:36:59;17.17;;;9.73;;
20531;SDS011;10424;52.102;8.084;2023-04-15T03:39:26;17.50;;;9.70;;
20531;SDS011;10424;52.102;8.084;2023-04-15T03:41:53;15.03;;;8.93;;
20531;SDS011;10424;52.102;8.084;2023-04-15T03:44:22;14.83;;;9.33;;
20531;SDS011;10424;52.102;8.084;2023-04-15T03:46:49;16.80;;;9.40;;
20531;SDS011;10424;52.102;8.084;2023-04-15T03:49:16;15.70;;;9.43;;
20531;SDS011;10424;52.102;8.084;2023-04-15T03:51:44;16.03;;;9.23;;
20531;SDS011;10424;52.102;8.084;2023-04-15T03:54:11;14.63;;;8.87;;
20531;SDS011;10424;52.102;8.084;2023-04-15T03:56:39;15.53;;;9.20;;
20531;SDS011;10424;52.102;8.084;2023-04-15T03:59:06;16.00;;;9.13;;
20531;SDS011;10424;52.102;8.084;2023-04-15T04:01:35;17.50;;;9.03;;
20531;SDS011;10424;52.102;8.084;2023-04-15T04:04:02;16.33;;;9.73;;
20531;SDS011;10424;52.102;8.084;2023-04-15T04:06:29;19.33;;;10.30;;
20531;SDS011;10424;52.102;8.084;2023-04-15T04:08:57;16.27;;;9.20;;
20531;SDS011;10424;52.102;8.084;2023-04-15T04:11:25;17.67;;;9.80;;
20531;SDS011;10424;52.102;8.084;2023-04-15T04:13:53;16.37;;;9.63;;
20531;SDS011;10424;52.102;8.084;2023-04-15T04:16:20;18.43;;;10.00;;
20531;SDS011;10424;52.102;8.084;2023-04-15T04:18:49;19.03;;;10.50;;
20531;SDS011;10424;52.102;8.084;2023-04-15T04:21:16;19.97;;;10.83;;
20531;SDS011;10424;52.102;8.084;2023-04-15T04:23:44;20.30;;;11.00;;
20531;SDS011;10424;52.102;8.084;2023-04-15T04:26:11;21.13;;;10.97;;
20531;SDS011;10424;52.102;8.084;2023-04-15T04:28:38;23.07;;;11.17;;
20531;SDS011;10424;52.102;8.084;2023-04-15T04:31:05;20.53;;;11.00;;
20531;SDS011;10424;52.102;8.084;2023-04-15T04:33:33;21.33;;;11.30;;
20531;SDS011;10424;52.102;8.084;2023-04-15T04:36:01;21.23;;;11.80;;
20531;SDS011;10424;52.102;8.084;2023-04-15T04:38:29;22.43;;;11.90;;
20531;SDS011;10424;52.102;8.084;2023-04-15T04:40:56;22.50;;;12.33;;
20531;SDS011;10424;52.102;8.084;2023-04-15T04:43:23;20.60;;;11.30;;
20531;SDS011;10424;52.102;8.084;2023-04-15T04:45:51;21.30;;;12.27;;
20531;SDS011;10424;52.102;8.084;2023-04-15T04:48:18;25.33;;;13.20;;
20531;SDS011;10424;52.102;8.084;2023-04-15T04:50:45;21.77;;;12.23;;
20531;SDS011;10424;52.102;8.084;2023-04-15T04:53:14;24.80;;;12.57;;
20531;SDS011;10424;52.102;8.084;2023-04-15T04:55:42;22.83;;;12.03;;
20531;SDS011;10424;52.102;8.084;2023-04-15T04:58:09;24.67;;;13.20;;
20531;SDS011;10424;52.102;8.084;2023-04-15T05:00:37;22.43;;;12.67;;
20531;SDS011;10424;52.102;8.084;2023-04-15T05:03:04;23.07;;;12.87;;
20531;SDS011;10424;52.102;8.084;2023-04-15T05:05:31;22.57;;;12.17;;
20531;SDS011;10424;52.102;8.084;2023-04-15T05:07:59;23.00;;;12.90;;
20531;SDS011;10424;52.102;8.084;2023-04-15T05:10:28;24.43;;;13.03;;
20531;SDS011;10424;52.102;8.084;2023-04-15T05:12:55;22.70;;;12.50;;
20531;SDS011;10424;52.102;8.084;2023-04-15T05:15:22;22.63;;;13.07;;
20531;SDS011;10424;52.102;8.084;2023-04-15T05:17:50;26.80;;;13.07;;
20531;SDS011;10424;52.102;8.084;2023-04-15T05:20:17;24.00;;;13.57;;
20531;SDS011;10424;52.102;8.084;2023-04-15T05:22:44;25.13;;;13.10;;
20531;SDS011;10424;52.102;8.084;2023-04-15T05:25:11;26.77;;;13.47;;
20531;SDS011;10424;52.102;8.084;2023-04-15T05:27:40;24.50;;;13.47;;
20531;SDS011;10424;52.102;8.084;2023-04-15T05:30:08;26.90;;;13.30;;
20531;SDS011;10424;52.102;8.084;2023-04-15T05:32:35;22.75;;;12.57;;
20531;SDS011;10424;52.102;8.084;2023-04-15T05:35:02;24.57;;;13.60;;
20531;SDS011;10424;52.102;8.084;2023-04-15T05:37:30;25.13;;;13.00;;
20531;SDS011;10424;52.102;8.084;2023-04-15T05:39:58;26.10;;;13.05;;
20531;SDS011;10424;52.102;8.084;2023-04-15T05:42:25;23.17;;;12.97;;
20531;SDS011;10424;52.102;8.084;2023-04-15T05:44:53;24.60;;;12.48;;
20531;SDS011;10424;52.102;8.084;2023-04-15T05:47:21;21.48;;;12.13;;
20531;SDS011;10424;52.102;8.084;2023-04-15T05:49:48;23.27;;;12.48;;
20531;SDS011;10424;52.102;8.084;2023-04-15T05:52:15;24.17;;;13.35;;
20531;SDS011;10424;52.102;8.084;2023-04-15T05:54:43;23.30;;;12.80;;
20531;SDS011;10424;52.102;8.084;2023-04-15T05:57:10;24.23;;;12.38;;
20531;SDS011;10424;52.102;8.084;2023-04-15T05:59:37;22.77;;;12.80;;
20531;SDS011;10424;52.102;8.084;2023-04-15T06:02:07;21.20;;;12.48;;
20531;SDS011;10424;52.102;8.084;2023-04-15T06:04:35;23.50;;;12.65;;
20531;SDS011;10424;52.102;8.084;2023-04-15T06:07:03;23.85;;;12.38;;
20531;SDS011;10424;52.102;8.084;2023-04-15T06:09:30;22.52;;;12.27;;
20531;SDS011;10424;52.102;8.084;2023-04-15T06:11:58;23.90;;;12.23;;
20531;SDS011;10424;52.102;8.084;2023-04-15T06:14:25;23.80;;;13.50;;
20531;SDS011;10424;52.102;8.084;2023-04-15T06:16:53;22.42;;;12.63;;
20531;SDS011;10424;52.102;8.084;2023-04-15T06:19:21;24.00;;;12.88;;
20531;SDS011;10424;52.102;8.084;2023-04-15T06:21:49;23.65;;;12.65;;
20531;SDS011;10424;52.102;8.084;2023-04-15T06:24:16;24.20;;;13.23;;
20531;SDS011;10424;52.102;8.084;2023-04-15T06:26:44;22.58;;;13.00;;
20531;SDS011;10424;52.102;8.084;2023-04-15T06:29:11;26.20;;;14.35;;
20531;SDS011;10424;52.102;8.084;2023-04-15T06:31:38;24.42;;;12.80;;
20531;SDS011;10424;52.102;8.084;2023-04-15T06:34:06;26.33;;;14.05;;
20531;SDS011;10424;52.102;8.084;2023-04-15T06:36:34;26.42;;;14.68;;
20531;SDS011;10424;52.102;8.084;2023-04-15T06:39:02;26.55;;;15.45;;
20531;SDS011;10424;52.102;8.084;2023-04-15T06:41:29;27.13;;;15.30;;
20531;SDS011;10424;52.102;8.084;2023-04-15T06:43:56;27.42;;;15.95;;
20531;SDS011;10424;52.102;8.084;2023-04-15T06:46:24;27.83;;;15.20;;
20531;SDS011;10424;52.102;8.084;2023-04-15T06:48:51;26.73;;;15.73;;
20531;SDS011;10424;52.102;8.084;2023-04-15T06:51:18;26.02;;;14.32;;
20531;SDS011;10424;52.102;8.084;2023-04-15T06:53:47;27.23;;;15.88;;
20531;SDS011;10424;52.102;8.084;2023-04-15T06:56:14;26.05;;;15.13;;
20531;SDS011;10424;52.102;8.084;2023-04-15T06:58:42;28.95;;;16.48;;
20531;SDS011;10424;52.102;8.084;2023-04-15T07:01:09;30.35;;;16.75;;
20531;SDS011;10424;52.102;8.084;2023-04-15T07:03:36;30.13;;;16.25;;
20531;SDS011;10424;52.102;8.084;2023-04-15T07:06:04;28.30;;;16.00;;
20531;SDS011;10424;52.102;8.084;2023-04-15T07:08:31;30.05;;;16.08;;
20531;SDS011;10424;52.102;8.084;2023-04-15T07:11:00;31.02;;;17.75;;
20531;SDS011;10424;52.102;8.084;2023-04-15T07:13:29;35.72;;;18.52;;
20531;SDS011;10424;52.102;8.084;2023-04-15T07:15:57;34.17;;;18.52;;
20531;SDS011;10424;52.102;8.084;2023-04-15T07:18:24;34.67;;;19.25;;
20531;SDS011;10424;52.102;8.084;2023-04-15T07:20:51;37.03;;;19.83;;
20531;SDS011;10424;52.102;8.084;2023-04-15T07:23:19;34.05;;;19.13;;
20531;SDS011;10424;52.102;8.084;2023-04-15T07:25:46;33.65;;;19.48;;
20531;SDS011;10424;52.102;8.084;2023-04-15T07:28:15;30.52;;;16.83;;
20531;SDS011;10424;52.102;8.084;2023-04-15T07:30:42;32.05;;;17.75;;
20531;SDS011;10424;52.102;8.084;2023-04-15T07:33:09;32.85;;;17.13;;
20531;SDS011;10424;52.102;8.084;2023-04-15T07:35:37;31.60;;;17.50;;
20531;SDS011;10424;52.102;8.084;2023-04-15T07:38:04;29.40;;;16.55;;
20531;SDS011;10424;52.102;8.084;2023-04-15T07:40:31;31.92;;;18.13;;
20531;SDS011;10424;52.102;8.084;2023-04-15T07:42:58;34.20;;;19.02;;
20531;SDS011;10424;52.102;8.084;2023-04-15T07:45:27;31.52;;;17.58;;
20531;SDS011;10424;52.102;8.084;2023-04-15T07:47:54;33.70;;;18.33;;
20531;SDS011;10424;52.102;8.084;2023-04-15T07:50:22;32.28;;;18.23;;
20531;SDS011;10424;52.102;8.084;2023-04-15T07:52:50;30.80;;;16.70;;
20531;SDS011;10424;52.102;8.084;2023-04-15T07:55:17;29.63;;;16.02;;
20531;SDS011;10424;52.102;8.084;2023-04-15T07:57:47;28.25;;;15.30;;
20531;SDS011;10424;52.102;8.084;2023-04-15T08:00:14;27.20;;;13.90;;
20531;SDS011;10424;52.102;8.084;2023-04-15T08:02:43;25.38;;;14.00;;
20531;SDS011;10424;52.102;8.084;2023-04-15T08:05:12;25.65;;;14.38;;
20531;SDS011;10424;52.102;8.084;2023-04-15T08:07:40;25.95;;;14.82;;
20531;SDS011;10424;52.102;8.084;2023-04-15T08:10:07;25.83;;;14.60;;
20531;SDS011;10424;52.102;8.084;2023-04-15T08:12:34;24.95;;;14.43;;
20531;SDS011;10424;52.102;8.084;2023-04-15T08:15:02;21.10;;;11.45;;
20531;SDS011;10424;52.102;8.084;2023-04-15T08:17:30;26.60;;;14.48;;
20531;SDS011;10424;52.102;8.084;2023-04-15T08:19:58;24.90;;;14.15;;
20531;SDS011;10424;52.102;8.084;2023-04-15T08:22:30;25.00;;;14.27;;
20531;SDS011;10424;52.102;8.084;2023-04-15T08:24:57;24.15;;;14.32;;
20531;SDS011;10424;52.102;8.084;2023-04-15T08:27:24;25.30;;;13.85;;
20531;SDS011;10424;52.102;8.084;2023-04-15T08:29:52;23.90;;;13.35;;
20531;SDS011;10424;52.102;8.084;2023-04-15T08:32:19;24.83;;;14.93;;
20531;SDS011;10424;52.102;8.084;2023-04-15T08:34:47;22.92;;;13.43;;
20531;SDS011;10424;52.102;8.084;2023-04-15T08:37:16;20.77;;;12.38;;
20531;SDS011;10424;52.102;8.084;2023-04-15T08:39:43;21.90;;;12.52;;
20531;SDS011;10424;52.102;8.084;2023-04-15T08:42:11;19.08;;;11.68;;
20531;SDS011;10424;52.102;8.084;2023-04-15T08:44:42;19.83;;;11.43;;
20531;SDS011;10424;52.102;8.084;2023-04-15T08:47:10;18.40;;;11.07;;
20531;SDS011;10424;52.102;8.084;2023-04-15T08:49:39;21.70;;;12.45;;
20531;SDS011;10424;52.102;8.084;2023-04-15T08:52:07;20.83;;;12.32;;
20531;SDS011;10424;52.102;8.084;2023-04-15T08:54:36;26.92;;;16.00;;
20531;SDS011;10424;52.102;8.084;2023-04-15T08:57:03;27.42;;;16.38;;
20531;SDS011;10424;52.102;8.084;2023-04-15T08:59:30;25.75;;;15.30;;
20531;SDS011;10424;52.102;8.084;2023-04-15T09:01:58;26.50;;;15.07;;
20531;SDS011;10424;52.102;8.084;2023-04-15T09:04:25;22.08;;;12.82;;
20531;SDS011;10424;52.102;8.084;2023-04-15T09:06:53;22.48;;;13.82;;
20531;SDS011;10424;52.102;8.084;2023-04-15T09:09:21;30.63;;;17.73;;
20531;SDS011;10424;52.102;8.084;2023-04-15T09:11:50;28.88;;;16.90;;
20531;SDS011;10424;52.102;8.084;2023-04-15T09:14:17;29.20;;;17.63;;
20531;SDS011;10424;52.102;8.084;2023-04-15T09:16:57;30.02;;;17.40;;
20531;SDS011;10424;52.102;8.084;2023-04-15T09:19:24;28.95;;;16.92;;
20531;SDS011;10424;52.102;8.084;2023-04-15T09:21:52;28.23;;;16.83;;
20531;SDS011;10424;52.102;8.084;2023-04-15T09:24:20;27.05;;;16.40;;
20531;SDS011;10424;52.102;8.084;2023-04-15T09:26:52;27.40;;;15.20;;
20531;SDS011;10424;52.102;8.084;2023-04-15T09:29:20;26.50;;;16.27;;
20531;SDS011;10424;52.102;8.084;2023-04-15T09:31:50;27.17;;;16.13;;
20531;SDS011;10424;52.102;8.084;2023-04-15T09:34:18;23.45;;;14.50;;
20531;SDS011;10424;52.102;8.084;2023-04-15T09:36:52;24.13;;;13.98;;
20531;SDS011;10424;52.102;8.084;2023-04-15T09:39:20;18.40;;;12.30;;
20531;SDS011;10424;52.102;8.084;2023-04-15T09:41:52;24.25;;;14.20;;
20531;SDS011;10424;52.102;8.084;2023-04-15T09:44:30;22.50;;;14.73;;
20531;SDS011;10424;52.102;8.084;2023-04-15T09:46:57;20.58;;;13.60;;
20531;SDS011;10424;52.102;8.084;2023-04-15T09:49:24;20.30;;;12.45;;
20531;SDS011;10424;52.102;8.084;2023-04-15T09:51:56;18.42;;;11.30;;
20531;SDS011;10424;52.102;8.084;2023-04-15T09:54:23;16.13;;;10.95;;
20531;SDS011;10424;52.102;8.084;2023-04-15T09:56:52;17.88;;;11.93;;
20531;SDS011;10424;52.102;8.084;2023-04-15T09:59:20;19.92;;;13.40;;
20531;SDS011;10424;52.102;8.084;2023-04-15T10:01:48;17.42;;;11.30;;
20531;SDS011;10424;52.102;8.084;2023-04-15T10:04:15;18.00;;;12.38;;
20531;SDS011;10424;52.102;8.084;2023-04-15T10:06:43;16.27;;;10.80;;
20531;SDS011;10424;52.102;8.084;2023-04-15T10:09:10;15.85;;;10.20;;
20531;SDS011;10424;52.102;8.084;2023-04-15T10:11:38;16.67;;;11.35;;
20531;SDS011;10424;52.102;8.084;2023-04-15T10:14:08;14.07;;;9.52;;
20531;SDS011;10424;52.102;8.084;2023-04-15T10:16:36;15.52;;;10.77;;
20531;SDS011;10424;52.102;8.084;2023-04-15T10:19:06;18.02;;;11.75;;
20531;SDS011;10424;52.102;8.084;2023-04-15T10:21:35;20.08;;;11.68;;
20531;SDS011;10424;52.102;8.084;2023-04-15T10:24:03;16.58;;;10.38;;
20531;SDS011;10424;52.102;8.084;2023-04-15T10:26:31;16.00;;;10.43;;
20531;SDS011;10424;52.102;8.084;2023-04-15T10:28:58;15.45;;;10.23;;
20531;SDS011;10424;52.102;8.084;2023-04-15T10:31:28;14.25;;;8.88;;
20531;SDS011;10424;52.102;8.084;2023-04-15T10:33:55;14.68;;;9.60;;
20531;SDS011;10424;52.102;8.084;2023-04-15T10:36:23;15.77;;;10.55;;
20531;SDS011;10424;52.102;8.084;2023-04-15T10:38:50;13.98;;;9.57;;
20531;SDS011;10424;52.102;8.084;2023-04-15T10:41:18;13.68;;;9.75;;
20531;SDS011;10424;52.102;8.084;2023-04-15T10:43:49;12.45;;;8.80;;
20531;SDS011;10424;52.102;8.084;2023-04-15T10:46:21;13.50;;;8.95;;
20531;SDS011;10424;52.102;8.084;2023-04-15T10:48:50;11.73;;;7.85;;
20531;SDS011;10424;52.102;8.084;2023-04-15T10:51:27;11.43;;;8.05;;
20531;SDS011;10424;52.102;8.084;2023-04-15T10:53:55;11.85;;;8.10;;
20531;SDS011;10424;52.102;8.084;2023-04-15T10:56:23;10.57;;;6.47;;
20531;SDS011;10424;52.102;8.084;2023-04-15T10:58:50;11.27;;;6.95;;
20531;SDS011;10424;52.102;8.084;2023-04-15T11:01:18;10.35;;;6.30;;
20531;SDS011;10424;52.102;8.084;2023-04-15T11:03:47;8.60;;;5.88;;
20531;SDS011;10424;52.102;8.084;2023-04-15T11:06:16;10.05;;;6.88;;
20531;SDS011;10424;52.102;8.084;2023-04-15T11:08:53;11.75;;;7.47;;
20531;SDS011;10424;52.102;8.084;2023-04-15T11:11:21;9.85;;;6.03;;
20531;SDS011;10424;52.102;8.084;2023-04-15T11:13:49;7.65;;;5.53;;
20531;SDS011;10424;52.102;8.084;2023-04-15T11:16:16;7.90;;;5.40;;
20531;SDS011;10424;52.102;8.084;2023-04-15T11:18:52;7.97;;;5.00;;
20531;SDS011;10424;52.102;8.084;2023-04-15T11:21:21;6.38;;;4.70;;
20531;SDS011;10424;52.102;8.084;2023-04-15T11:23:50;7.57;;;5.30;;
20531;SDS011;10424;52.102;8.084;2023-04-15T11:26:18;7.35;;;5.00;;
20531;SDS011;10424;52.102;8.084;2023-04-15T11:28:45;6.68;;;4.55;;
20531;SDS011;10424;52.102;8.084;2023-04-15T11:31:13;6.07;;;4.57;;
20531;SDS011;10424;52.102;8.084;2023-04-15T11:33:44;7.35;;;4.50;;
20531;SDS011;10424;52.102;8.084;2023-04-15T11:36:12;8.60;;;4.78;;
20531;SDS011;10424;52.102;8.084;2023-04-15T11:38:43;6.47;;;4.47;;
20531;SDS011;10424;52.102;8.084;2023-04-15T11:41:11;8.57;;;4.95;;
20531;SDS011;10424;52.102;8.084;2023-04-15T11:43:38;5.75;;;3.85;;
20531;SDS011;10424;52.102;8.084;2023-04-15T13:02:38;5.50;;;3.53;;
20531;SDS011;10424;52.102;8.084;2023-04-15T13:05:06;4.13;;;3.03;;
20531;SDS011;10424;52.102;8.084;2023-04-15T13:07:33;4.72;;;3.50;;
20531;SDS011;10424;52.102;8.084;2023-04-15T13:10:01;4.43;;;3.40;;
20531;SDS011;10424;52.102;8.084;2023-04-15T13:12:29;3.85;;;3.03;;
20531;SDS011;10424;52.102;8.084;2023-04-15T13:15:00;3.33;;;2.58;;
20531;SDS011;10424;52.102;8.084;2023-04-15T13:17:28;4.75;;;2.90;;
20531;SDS011;10424;52.102;8.084;2023-04-15T13:19:57;3.20;;;2.65;;
20531;SDS011;10424;52.102;8.084;2023-04-15T13:22:24;3.78;;;2.42;;
20531;SDS011;10424;52.102;8.084;2023-04-15T13:24:51;3.55;;;2.50;;
20531;SDS011;10424;52.102;8.084;2023-04-15T13:27:19;3.28;;;2.60;;
20531;SDS011;10424;52.102;8.084;2023-04-15T13:29:46;3.60;;;2.90;;
20531;SDS011;10424;52.102;8.084;2023-04-15T13:32:13;3.22;;;2.60;;
20531;SDS011;10424;52.102;8.084;2023-04-15T13:34:41;3.35;;;2.75;;
20531;SDS011;10424;52.102;8.084;2023-04-15T13:37:10;3.10;;;2.60;;
20531;SDS011;10424;52.102;8.084;2023-04-15T13:39:37;3.55;;;2.78;;
20531;SDS011;10424;52.102;8.084;2023-04-15T13:42:05;3.35;;;2.65;;
20531;SDS011;10424;52.102;8.084;2023-04-15T13:44:32;3.00;;;2.55;;
20531;SDS011;10424;52.102;8.084;2023-04-15T13:47:00;6.15;;;2.88;;
20531;SDS011;10424;52.102;8.084;2023-04-15T13:49:27;3.55;;;2.90;;
20531;SDS011;10424;52.102;8.084;2023-04-15T13:51:55;3.53;;;2.63;;
20531;SDS011;10424;52.102;8.084;2023-04-15T13:54:23;3.60;;;2.80;;
20531;SDS011;10424;52.102;8.084;2023-04-15T13:56:51;4.03;;;3.20;;
20531;SDS011;10424;52.102;8.084;2023-04-15T13:59:18;4.97;;;3.90;;
20531;SDS011;10424;52.102;8.084;2023-04-15T14:01:45;7.97;;;5.10;;
20531;SDS011;10424;52.102;8.084;2023-04-15T14:04:13;16.50;;;8.02;;
20531;SDS011;10424;52.102;8.084;2023-04-15T14:06:40;17.15;;;10.80;;
20531;SDS011;10424;52.102;8.084;2023-04-15T14:09:07;16.83;;;11.32;;
20531;SDS011;10424;52.102;8.084;2023-04-15T14:11:37;17.40;;;11.80;;
20531;SDS011;10424;52.102;8.084;2023-04-15T14:14:05;12.50;;;8.18;;
20531;SDS011;10424;52.102;8.084;2023-04-15T14:16:32;15.10;;;8.68;;
20531;SDS011;10424;52.102;8.084;2023-04-15T14:19:00;13.80;;;8.70;;
20531;SDS011;10424;52.102;8.084;2023-04-15T14:21:27;14.60;;;10.35;;
20531;SDS011;10424;52.102;8.084;2023-04-15T14:23:56;9.38;;;6.38;;
20531;SDS011;10424;52.102;8.084;2023-04-15T14:26:23;10.02;;;7.35;;
20531;SDS011;10424;52.102;8.084;2023-04-15T14:28:52;9.10;;;6.40;;
20531;SDS011;10424;52.102;8.084;2023-04-15T14:31:19;8.98;;;5.63;;
20531;SDS011;10424;52.102;8.084;2023-04-15T14:33:46;8.18;;;5.60;;
20531;SDS011;10424;52.102;8.084;2023-04-15T14:36:13;10.35;;;7.10;;
20531;SDS011;10424;52.102;8.084;2023-04-15T14:38:41;10.88;;;6.80;;
20531;SDS011;10424;52.102;8.084;2023-04-15T14:41:08;13.27;;;8.30;;
20531;SDS011;10424;52.102;8.084;2023-04-15T14:43:36;11.27;;;8.18;;
20531;SDS011;10424;52.102;8.084;2023-04-15T14:46:05;10.75;;;7.53;;
20531;SDS011;10424;52.102;8.084;2023-04-15T14:48:33;14.48;;;8.38;;
20531;SDS011;10424;52.102;8.084;2023-04-15T14:51:00;18.33;;;11.50;;
20531;SDS011;10424;52.102;8.084;2023-04-15T14:53:27;20.80;;;13.38;;
20531;SDS011;10424;52.102;8.084;2023-04-15T14:55:55;21.23;;;13.70;;
20531;SDS011;10424;52.102;8.084;2023-04-15T14:58:23;22.77;;;13.93;;
20531;SDS011;10424;52.102;8.084;2023-04-15T15:00:50;20.08;;;12.95;;
20531;SDS011;10424;52.102;8.084;2023-04-15T15:03:19;16.92;;;10.80;;
20531;SDS011;10424;52.102;8.084;2023-04-15T15:05:46;14.32;;;9.00;;
20531;SDS011;10424;52.102;8.084;2023-04-15T15:08:14;17.88;;;10.57;;
20531;SDS011;10424;52.102;8.084;2023-04-15T15:10:41;17.45;;;10.75;;
20531;SDS011;10424;52.102;8.084;2023-04-15T15:13:10;22.67;;;12.30;;
20531;SDS011;10424;52.102;8.084;2023-04-15T15:15:37;21.48;;;12.95;;
20531;SDS011;10424;52.102;8.084;2023-04-15T15:18:05;18.98;;;12.85;;
20531;SDS011;10424;52.102;8.084;2023-04-15T15:20:34;22.27;;;13.02;;
20531;SDS011;10424;52.102;8.084;2023-04-15T15:23:01;24.60;;;15.05;;
20531;SDS011;10424;52.102;8.084;2023-04-15T15:25:28;23.95;;;13.38;;
20531;SDS011;10424;52.102;8.084;2023-04-15T15:27:56;27.27;;;15.93;;
20531;SDS011;10424;52.102;8.084;2023-04-15T15:30:23;28.90;;;16.17;;
20531;SDS011;10424;52.102;8.084;2023-04-15T15:32:50;29.20;;;16.17;;
20531;SDS011;10424;52.102;8.084;2023-04-15T15:35:18;20.52;;;12.48;;
20531;SDS011;10424;52.102;8.084;2023-04-15T15:37:48;22.13;;;13.23;;
20531;SDS011;10424;52.102;8.084;2023-04-15T15:40:15;21.33;;;13.30;;
20531;SDS011;10424;52.102;8.084;2023-04-15T15:42:42;18.55;;;10.50;;
20531;SDS011;10424;52.102;8.084;2023-04-15T15:45:11;17.33;;;10.63;;
20531;SDS011;10424;52.102;8.084;2023-04-15T15:47:39;18.63;;;10.23;;